UTA1126 UWUU-USTR
Flight info
| Callsign | UTA1126 |
|---|---|
| Flight time | 1h 2m |
| Altitude | 37000 |
| Route | IPROK L749 TUPKI T797 BUKOS |
| Aircraft | B738/M-SDE2E3FGHIRWXY/LB1 |
Departure
| Time | 2026-04-30 13:51 |
|---|---|
| Airport | Ufa International Airport (UWUU) |
Arrival
| Time | 2026-04-30 14:54 |
|---|---|
| Airport | Roshchino International Airport (USTR) |
| Time | Latitude | Longitude | Altitude | Speed | Heading |
|---|---|---|---|---|---|
| 2026-04-30 13:01 | 54.56427 | 55.88397 | 389 ft | 0 kts | 61° |
| 2026-04-30 13:31 | 54.56418 | 55.88369 | 114 ft | 4 kts | 61° |
| 2026-04-30 13:32 | 54.56399 | 55.88299 | 329 ft | 2 kts | 80° |
| 2026-04-30 13:32 | 54.56404 | 55.88263 | 389 ft | 2 kts | 140° |
| 2026-04-30 13:33 | 54.56421 | 55.88245 | 389 ft | 0 kts | 149° |
| 2026-04-30 13:34 | 54.56364 | 55.88300 | 389 ft | 8 kts | 151° |
| 2026-04-30 13:35 | 54.56318 | 55.88344 | 389 ft | 7 kts | 151° |
| 2026-04-30 13:35 | 54.56237 | 55.88422 | 389 ft | 7 kts | 151° |
| 2026-04-30 13:36 | 54.56159 | 55.88497 | 389 ft | 6 kts | 150° |
| 2026-04-30 13:36 | 54.56120 | 55.88535 | 389 ft | 7 kts | 150° |
| 2026-04-30 13:36 | 54.55998 | 55.88653 | 389 ft | 14 kts | 150° |
| 2026-04-30 13:37 | 54.55910 | 55.88737 | 389 ft | 15 kts | 151° |
| 2026-04-30 13:37 | 54.55745 | 55.88895 | 389 ft | 11 kts | 150° |
| 2026-04-30 13:38 | 54.55598 | 55.89037 | 389 ft | 13 kts | 150° |
| 2026-04-30 13:38 | 54.55536 | 55.89097 | 389 ft | 10 kts | 150° |
| 2026-04-30 13:38 | 54.55400 | 55.89228 | 389 ft | 10 kts | 150° |
| 2026-04-30 13:39 | 54.55259 | 55.89365 | 389 ft | 13 kts | 150° |
| 2026-04-30 13:39 | 54.55084 | 55.89537 | 389 ft | 14 kts | 152° |
| 2026-04-30 13:40 | 54.55026 | 55.89590 | 389 ft | 9 kts | 152° |
| 2026-04-30 13:40 | 54.54962 | 55.89637 | 389 ft | 11 kts | 173° |
| 2026-04-30 13:40 | 54.54893 | 55.89589 | 389 ft | 7 kts | 211° |
| 2026-04-30 13:40 | 54.54842 | 55.89535 | 388 ft | 10 kts | 211° |
| 2026-04-30 13:41 | 54.54782 | 55.89472 | 388 ft | 9 kts | 211° |
| 2026-04-30 13:41 | 54.54735 | 55.89400 | 389 ft | 10 kts | 234° |
| 2026-04-30 13:41 | 54.54698 | 55.89296 | 388 ft | 10 kts | 246° |
| 2026-04-30 13:41 | 54.54682 | 55.89221 | 388 ft | 7 kts | 250° |
| 2026-04-30 13:42 | 54.54663 | 55.89131 | 389 ft | 9 kts | 251° |
| 2026-04-30 13:42 | 54.54642 | 55.89029 | 389 ft | 9 kts | 251° |
| 2026-04-30 13:42 | 54.54600 | 55.88822 | 393 ft | 9 kts | 250° |
| 2026-04-30 13:43 | 54.54581 | 55.88729 | 390 ft | 8 kts | 251° |
| 2026-04-30 13:43 | 54.54565 | 55.88645 | 397 ft | 7 kts | 251° |
| 2026-04-30 13:43 | 54.54549 | 55.88564 | 399 ft | 7 kts | 251° |
| 2026-04-30 13:43 | 54.54533 | 55.88485 | 402 ft | 7 kts | 251° |
| 2026-04-30 13:44 | 54.54518 | 55.88411 | 404 ft | 6 kts | 250° |
| 2026-04-30 13:44 | 54.54502 | 55.88339 | 402 ft | 6 kts | 250° |
| 2026-04-30 13:44 | 54.54488 | 55.88269 | 404 ft | 6 kts | 250° |
| 2026-04-30 13:44 | 54.54473 | 55.88199 | 409 ft | 6 kts | 250° |
| 2026-04-30 13:45 | 54.54449 | 55.88083 | 411 ft | 4 kts | 250° |
| 2026-04-30 13:45 | 54.54439 | 55.88032 | 410 ft | 5 kts | 250° |
| 2026-04-30 13:45 | 54.54428 | 55.87980 | 409 ft | 3 kts | 251° |
| 2026-04-30 13:46 | 54.54425 | 55.87964 | 411 ft | 0 kts | 251° |
| 2026-04-30 13:49 | 54.54423 | 55.87951 | 412 ft | 3 kts | 251° |
| 2026-04-30 13:49 | 54.54411 | 55.87894 | 411 ft | 7 kts | 251° |
| 2026-04-30 13:49 | 54.54395 | 55.87792 | 412 ft | 10 kts | 270° |
| 2026-04-30 13:49 | 54.54439 | 55.87707 | 412 ft | 9 kts | 330° |
| 2026-04-30 13:50 | 54.54452 | 55.87694 | 413 ft | 0 kts | 330° |
| 2026-04-30 13:50 | 54.54465 | 55.87681 | 409 ft | 18 kts | 330° |
| 2026-04-30 13:50 | 54.54815 | 55.87341 | 413 ft | 96 kts | 331° |
| 2026-04-30 13:51 | 54.55600 | 55.86596 | 472 ft | 153 kts | 332° |
| 2026-04-30 13:51 | 54.56556 | 55.85660 | 1077 ft | 164 kts | 330° |
| 2026-04-30 13:51 | 54.57552 | 55.84662 | 1972 ft | 162 kts | 331° |
| 2026-04-30 13:51 | 54.58515 | 55.83703 | 2830 ft | 166 kts | 322° |
| 2026-04-30 13:52 | 54.59331 | 55.82139 | 3387 ft | 186 kts | 305° |
| 2026-04-30 13:52 | 54.59981 | 55.80119 | 4098 ft | 191 kts | 295° |
| 2026-04-30 13:52 | 54.60659 | 55.78077 | 4820 ft | 201 kts | 309° |
| 2026-04-30 13:52 | 54.61601 | 55.76242 | 5377 ft | 212 kts | 313° |
| 2026-04-30 13:53 | 54.62612 | 55.74159 | 5607 ft | 243 kts | 304° |
| 2026-04-30 13:53 | 54.63188 | 55.71292 | 6043 ft | 262 kts | 274° |
| 2026-04-30 13:53 | 54.63106 | 55.68104 | 6900 ft | 264 kts | 265° |
| 2026-04-30 13:53 | 54.62998 | 55.65060 | 8238 ft | 248 kts | 270° |
| 2026-04-30 13:54 | 54.63461 | 55.62146 | 8795 ft | 267 kts | 302° |
| 2026-04-30 13:54 | 54.64919 | 55.60056 | 9312 ft | 285 kts | 338° |
| 2026-04-30 13:54 | 54.66900 | 55.59648 | 10084 ft | 293 kts | 4° |
| 2026-04-30 13:54 | 54.68967 | 55.60037 | 10590 ft | 309 kts | 5° |
| 2026-04-30 13:55 | 54.71134 | 55.60865 | 10914 ft | 329 kts | 26° |
| 2026-04-30 13:55 | 54.72885 | 55.63428 | 11610 ft | 335 kts | 56° |
| 2026-04-30 13:55 | 54.74163 | 55.66806 | 12414 ft | 339 kts | 50° |
| 2026-04-30 13:55 | 54.76037 | 55.69316 | 13178 ft | 345 kts | 28° |
| 2026-04-30 13:56 | 54.78084 | 55.71437 | 13981 ft | 350 kts | 38° |
| 2026-04-30 13:56 | 54.79735 | 55.74644 | 14686 ft | 356 kts | 55° |
| 2026-04-30 13:56 | 54.81148 | 55.78206 | 15411 ft | 362 kts | 58° |
| 2026-04-30 13:56 | 54.82550 | 55.81869 | 16129 ft | 368 kts | 58° |
| 2026-04-30 13:57 | 54.83974 | 55.85597 | 16854 ft | 374 kts | 59° |
| 2026-04-30 13:57 | 54.85432 | 55.89385 | 17578 ft | 380 kts | 59° |
| 2026-04-30 13:57 | 54.86904 | 55.93179 | 18279 ft | 387 kts | 59° |
| 2026-04-30 13:57 | 54.88423 | 55.97070 | 18906 ft | 392 kts | 59° |
| 2026-04-30 13:58 | 54.89968 | 56.01014 | 19551 ft | 397 kts | 59° |
| 2026-04-30 13:58 | 54.93112 | 56.09042 | 20828 ft | 407 kts | 59° |
| 2026-04-30 13:58 | 54.94713 | 56.13135 | 21457 ft | 411 kts | 59° |
| 2026-04-30 13:59 | 54.96333 | 56.17286 | 22068 ft | 416 kts | 59° |
| 2026-04-30 13:59 | 54.97966 | 56.21476 | 22668 ft | 421 kts | 59° |
| 2026-04-30 13:59 | 54.99619 | 56.25725 | 23250 ft | 426 kts | 59° |
| 2026-04-30 13:59 | 55.01290 | 56.30028 | 23803 ft | 431 kts | 60° |
| 2026-04-30 14:00 | 55.02976 | 56.34380 | 24296 ft | 435 kts | 60° |
| 2026-04-30 14:00 | 55.06380 | 56.43209 | 25267 ft | 443 kts | 60° |
| 2026-04-30 14:00 | 55.08096 | 56.47695 | 25732 ft | 446 kts | 62° |
| 2026-04-30 14:01 | 55.09418 | 56.52545 | 26132 ft | 439 kts | 81° |
| 2026-04-30 14:01 | 55.10029 | 56.57731 | 26642 ft | 436 kts | 87° |
| 2026-04-30 14:01 | 55.10546 | 56.62961 | 27109 ft | 438 kts | 87° |
| 2026-04-30 14:01 | 55.11054 | 56.68228 | 27553 ft | 442 kts | 88° |
| 2026-04-30 14:02 | 55.11571 | 56.73543 | 27976 ft | 446 kts | 88° |
| 2026-04-30 14:02 | 55.12104 | 56.78917 | 28399 ft | 450 kts | 87° |
| 2026-04-30 14:02 | 55.12648 | 56.84315 | 28830 ft | 453 kts | 87° |
| 2026-04-30 14:02 | 55.13197 | 56.89699 | 29246 ft | 456 kts | 87° |
| 2026-04-30 14:03 | 55.13758 | 56.95182 | 29655 ft | 460 kts | 87° |
| 2026-04-30 14:03 | 55.14328 | 57.00772 | 30052 ft | 463 kts | 87° |
| 2026-04-30 14:03 | 55.14886 | 57.06256 | 30395 ft | 466 kts | 87° |
| 2026-04-30 14:03 | 55.15453 | 57.11863 | 30707 ft | 469 kts | 87° |
| 2026-04-30 14:04 | 55.16020 | 57.17493 | 31012 ft | 472 kts | 87° |
| 2026-04-30 14:04 | 55.16587 | 57.23166 | 31323 ft | 475 kts | 87° |
| 2026-04-30 14:04 | 55.17156 | 57.28874 | 31629 ft | 477 kts | 87° |
| 2026-04-30 14:04 | 55.17723 | 57.34595 | 31998 ft | 478 kts | 87° |
| 2026-04-30 14:05 | 55.18289 | 57.40321 | 32425 ft | 477 kts | 87° |
| 2026-04-30 14:05 | 55.18851 | 57.46038 | 32840 ft | 476 kts | 88° |
| 2026-04-30 14:05 | 55.19408 | 57.51751 | 33185 ft | 477 kts | 88° |
| 2026-04-30 14:05 | 55.19963 | 57.57484 | 33540 ft | 478 kts | 88° |
| 2026-04-30 14:06 | 55.20516 | 57.63212 | 33936 ft | 477 kts | 88° |
| 2026-04-30 14:06 | 55.21615 | 57.74679 | 34613 ft | 477 kts | 88° |
| 2026-04-30 14:07 | 55.22699 | 57.86122 | 35276 ft | 475 kts | 87° |
| 2026-04-30 14:07 | 55.23236 | 57.91833 | 35604 ft | 475 kts | 87° |
| 2026-04-30 14:07 | 55.23770 | 57.97538 | 35915 ft | 474 kts | 87° |
| 2026-04-30 14:08 | 55.24829 | 58.08941 | 36543 ft | 473 kts | 87° |
| 2026-04-30 14:08 | 55.25346 | 58.14549 | 36849 ft | 472 kts | 87° |
| 2026-04-30 14:08 | 55.26392 | 58.25955 | 37066 ft | 478 kts | 87° |
| 2026-04-30 14:09 | 55.27439 | 58.37465 | 37072 ft | 476 kts | 87° |
| 2026-04-30 14:10 | 55.28973 | 58.54487 | 37072 ft | 469 kts | 87° |
| 2026-04-30 14:10 | 55.29973 | 58.65805 | 37082 ft | 470 kts | 87° |
| 2026-04-30 14:11 | 55.30966 | 58.77149 | 37081 ft | 470 kts | 88° |
| 2026-04-30 14:11 | 55.31950 | 58.88510 | 37075 ft | 471 kts | 88° |
| 2026-04-30 14:12 | 55.32923 | 58.99880 | 37087 ft | 471 kts | 88° |
| 2026-04-30 14:12 | 55.33888 | 59.11271 | 37079 ft | 472 kts | 88° |
| 2026-04-30 14:13 | 55.34838 | 59.22619 | 37079 ft | 472 kts | 88° |
| 2026-04-30 14:13 | 55.35784 | 59.34044 | 37073 ft | 473 kts | 88° |
| 2026-04-30 14:14 | 55.36719 | 59.45481 | 37080 ft | 473 kts | 88° |
| 2026-04-30 14:14 | 55.37645 | 59.56938 | 37086 ft | 473 kts | 88° |
| 2026-04-30 14:15 | 55.38562 | 59.68413 | 37085 ft | 474 kts | 89° |
| 2026-04-30 14:15 | 55.39285 | 59.77963 | 37085 ft | 472 kts | 91° |
| 2026-04-30 14:16 | 55.39662 | 59.89447 | 37090 ft | 469 kts | 95° |
| 2026-04-30 14:16 | 55.39893 | 60.00921 | 37088 ft | 470 kts | 95° |
| 2026-04-30 14:17 | 55.40188 | 60.12434 | 37093 ft | 471 kts | 95° |
| 2026-04-30 14:17 | 55.40495 | 60.23956 | 37087 ft | 472 kts | 95° |
| 2026-04-30 14:18 | 55.40800 | 60.35434 | 37086 ft | 472 kts | 95° |
| 2026-04-30 14:18 | 55.41240 | 60.52763 | 37093 ft | 473 kts | 95° |
| 2026-04-30 14:19 | 55.41655 | 60.70141 | 37095 ft | 474 kts | 95° |
| 2026-04-30 14:20 | 55.41919 | 60.81741 | 37095 ft | 474 kts | 95° |
| 2026-04-30 14:20 | 55.43666 | 60.99107 | 37094 ft | 485 kts | 82° |
| 2026-04-30 14:21 | 55.45276 | 61.10660 | 37102 ft | 485 kts | 82° |
| 2026-04-30 14:22 | 55.47586 | 61.28032 | 37102 ft | 485 kts | 83° |
| 2026-04-30 14:22 | 55.49807 | 61.45358 | 37099 ft | 486 kts | 83° |
| 2026-04-30 14:23 | 55.52752 | 61.68624 | 37100 ft | 486 kts | 83° |
| 2026-04-30 14:24 | 55.54935 | 61.86095 | 37104 ft | 486 kts | 83° |
| 2026-04-30 14:25 | 55.59159 | 62.08815 | 37104 ft | 497 kts | 60° |
| 2026-04-30 14:26 | 55.63489 | 62.18359 | 37109 ft | 499 kts | 49° |
| 2026-04-30 14:26 | 55.65826 | 62.22944 | 36664 ft | 503 kts | 49° |
| 2026-04-30 14:26 | 55.70455 | 62.32229 | 35567 ft | 502 kts | 51° |
| 2026-04-30 14:27 | 55.72723 | 62.36904 | 35158 ft | 499 kts | 51° |
| 2026-04-30 14:27 | 55.74979 | 62.41574 | 34699 ft | 497 kts | 51° |
| 2026-04-30 14:27 | 55.77234 | 62.46235 | 34172 ft | 498 kts | 52° |
| 2026-04-30 14:28 | 55.81735 | 62.55544 | 33213 ft | 489 kts | 52° |
| 2026-04-30 14:28 | 55.83935 | 62.60098 | 32682 ft | 482 kts | 52° |
| 2026-04-30 14:28 | 55.86102 | 62.64596 | 32138 ft | 476 kts | 52° |
| 2026-04-30 14:28 | 55.88234 | 62.69032 | 31733 ft | 467 kts | 52° |
| 2026-04-30 14:29 | 55.92372 | 62.77671 | 30968 ft | 459 kts | 52° |
| 2026-04-30 14:29 | 55.96495 | 62.86317 | 30217 ft | 456 kts | 52° |
| 2026-04-30 14:30 | 56.02615 | 62.99202 | 28932 ft | 449 kts | 52° |
| 2026-04-30 14:31 | 56.06586 | 63.07597 | 27765 ft | 438 kts | 52° |
| 2026-04-30 14:31 | 56.10482 | 63.15865 | 26586 ft | 430 kts | 51° |
| 2026-04-30 14:31 | 56.12400 | 63.19944 | 26046 ft | 424 kts | 51° |
| 2026-04-30 14:32 | 56.16156 | 63.27955 | 24997 ft | 415 kts | 51° |
| 2026-04-30 14:32 | 56.18006 | 63.31910 | 24485 ft | 411 kts | 51° |
| 2026-04-30 14:32 | 56.19830 | 63.35817 | 23987 ft | 407 kts | 51° |
| 2026-04-30 14:33 | 56.21636 | 63.39692 | 23454 ft | 402 kts | 51° |
| 2026-04-30 14:33 | 56.25191 | 63.47330 | 22284 ft | 395 kts | 51° |
| 2026-04-30 14:33 | 56.26939 | 63.51095 | 21785 ft | 389 kts | 51° |
| 2026-04-30 14:34 | 56.28750 | 63.54585 | 21456 ft | 381 kts | 45° |
| 2026-04-30 14:34 | 56.30668 | 63.57903 | 21195 ft | 377 kts | 43° |
| 2026-04-30 14:34 | 56.32579 | 63.61113 | 20965 ft | 384 kts | 43° |
| 2026-04-30 14:34 | 56.34547 | 63.64407 | 20722 ft | 388 kts | 43° |
| 2026-04-30 14:35 | 56.38489 | 63.71061 | 20194 ft | 386 kts | 44° |
| 2026-04-30 14:35 | 56.40439 | 63.74383 | 19845 ft | 385 kts | 44° |
| 2026-04-30 14:35 | 56.42376 | 63.77701 | 19489 ft | 384 kts | 44° |
| 2026-04-30 14:36 | 56.44310 | 63.81023 | 19120 ft | 383 kts | 44° |
| 2026-04-30 14:36 | 56.46239 | 63.84346 | 18737 ft | 383 kts | 44° |
| 2026-04-30 14:36 | 56.48146 | 63.87637 | 18352 ft | 375 kts | 44° |
| 2026-04-30 14:36 | 56.50015 | 63.90866 | 17944 ft | 367 kts | 44° |
| 2026-04-30 14:37 | 56.51847 | 63.94038 | 17582 ft | 363 kts | 44° |
| 2026-04-30 14:37 | 56.53671 | 63.97200 | 17227 ft | 362 kts | 44° |
| 2026-04-30 14:37 | 56.55487 | 64.00352 | 16874 ft | 361 kts | 44° |
| 2026-04-30 14:37 | 56.57300 | 64.03504 | 16521 ft | 360 kts | 44° |
| 2026-04-30 14:38 | 56.59108 | 64.06651 | 16166 ft | 360 kts | 44° |
| 2026-04-30 14:38 | 56.60907 | 64.09788 | 15817 ft | 359 kts | 44° |
| 2026-04-30 14:38 | 56.62704 | 64.12924 | 15464 ft | 358 kts | 44° |
| 2026-04-30 14:38 | 56.64476 | 64.16021 | 15130 ft | 357 kts | 44° |
| 2026-04-30 14:39 | 56.66263 | 64.19148 | 14775 ft | 356 kts | 44° |
| 2026-04-30 14:39 | 56.68040 | 64.22263 | 14424 ft | 355 kts | 44° |
| 2026-04-30 14:39 | 56.69800 | 64.25352 | 14067 ft | 347 kts | 44° |
| 2026-04-30 14:40 | 56.73185 | 64.31303 | 13337 ft | 330 kts | 44° |
| 2026-04-30 14:40 | 56.74813 | 64.34172 | 13007 ft | 321 kts | 44° |
| 2026-04-30 14:40 | 56.76398 | 64.36969 | 12687 ft | 312 kts | 44° |
| 2026-04-30 14:40 | 56.77940 | 64.39694 | 12394 ft | 307 kts | 44° |
| 2026-04-30 14:41 | 56.79474 | 64.42407 | 12109 ft | 307 kts | 44° |
| 2026-04-30 14:41 | 56.81004 | 64.45117 | 11804 ft | 307 kts | 44° |
| 2026-04-30 14:41 | 56.82536 | 64.47832 | 11500 ft | 307 kts | 44° |
| 2026-04-30 14:41 | 56.84065 | 64.50547 | 11187 ft | 307 kts | 44° |
| 2026-04-30 14:42 | 56.85596 | 64.53266 | 10893 ft | 307 kts | 44° |
| 2026-04-30 14:42 | 56.87125 | 64.55986 | 10587 ft | 307 kts | 44° |
| 2026-04-30 14:42 | 56.88634 | 64.58674 | 10295 ft | 306 kts | 44° |
| 2026-04-30 14:42 | 56.90155 | 64.61415 | 10154 ft | 300 kts | 48° |
| 2026-04-30 14:43 | 56.91197 | 64.64644 | 10008 ft | 291 kts | 73° |
| 2026-04-30 14:43 | 56.91716 | 64.68143 | 9780 ft | 288 kts | 79° |
| 2026-04-30 14:43 | 56.92126 | 64.71756 | 9513 ft | 286 kts | 81° |
| 2026-04-30 14:43 | 56.92506 | 64.75332 | 9212 ft | 286 kts | 81° |
| 2026-04-30 14:44 | 56.92886 | 64.78905 | 8917 ft | 286 kts | 81° |
| 2026-04-30 14:44 | 56.93267 | 64.82424 | 8634 ft | 285 kts | 81° |
| 2026-04-30 14:44 | 56.93657 | 64.85981 | 8338 ft | 286 kts | 81° |
| 2026-04-30 14:44 | 56.94052 | 64.89545 | 8044 ft | 285 kts | 81° |
| 2026-04-30 14:45 | 56.94448 | 64.93106 | 7752 ft | 285 kts | 81° |
| 2026-04-30 14:45 | 56.94845 | 64.96663 | 7460 ft | 285 kts | 81° |
| 2026-04-30 14:45 | 56.95243 | 65.00223 | 7161 ft | 285 kts | 81° |
| 2026-04-30 14:45 | 56.95638 | 65.03770 | 6874 ft | 284 kts | 81° |
| 2026-04-30 14:46 | 56.96033 | 65.07317 | 6579 ft | 284 kts | 81° |
| 2026-04-30 14:46 | 56.96424 | 65.10824 | 6259 ft | 277 kts | 81° |
| 2026-04-30 14:46 | 56.96803 | 65.14239 | 5969 ft | 269 kts | 81° |
| 2026-04-30 14:46 | 56.97170 | 65.17549 | 5696 ft | 261 kts | 81° |
| 2026-04-30 14:47 | 56.97524 | 65.20756 | 5421 ft | 254 kts | 81° |
| 2026-04-30 14:47 | 56.97868 | 65.23881 | 5160 ft | 247 kts | 81° |
| 2026-04-30 14:47 | 56.98203 | 65.26931 | 4906 ft | 240 kts | 81° |
| 2026-04-30 14:47 | 56.98535 | 65.29958 | 4680 ft | 246 kts | 81° |
| 2026-04-30 14:48 | 56.98876 | 65.33096 | 4411 ft | 254 kts | 80° |
| 2026-04-30 14:48 | 56.99219 | 65.36241 | 4172 ft | 253 kts | 80° |
| 2026-04-30 14:48 | 56.99563 | 65.39401 | 3911 ft | 253 kts | 79° |
| 2026-04-30 14:48 | 57.00231 | 65.42352 | 3720 ft | 250 kts | 54° |
| 2026-04-30 14:49 | 57.01386 | 65.44713 | 3549 ft | 247 kts | 45° |
| 2026-04-30 14:49 | 57.02608 | 65.46878 | 3431 ft | 241 kts | 44° |
| 2026-04-30 14:49 | 57.03801 | 65.48993 | 3317 ft | 235 kts | 45° |
| 2026-04-30 14:49 | 57.04957 | 65.51067 | 3211 ft | 229 kts | 45° |
| 2026-04-30 14:50 | 57.07672 | 65.52914 | 2837 ft | 213 kts | 339° |
| 2026-04-30 14:50 | 57.08820 | 65.51351 | 2667 ft | 202 kts | 313° |
| 2026-04-30 14:51 | 57.10684 | 65.47845 | 2259 ft | 185 kts | 315° |
| 2026-04-30 14:51 | 57.11569 | 65.46192 | 2013 ft | 177 kts | 315° |
| 2026-04-30 14:51 | 57.13182 | 65.43178 | 1549 ft | 148 kts | 315° |
| 2026-04-30 14:52 | 57.13878 | 65.41880 | 1346 ft | 137 kts | 315° |
| 2026-04-30 14:52 | 57.15206 | 65.39403 | 986 ft | 139 kts | 315° |
| 2026-04-30 14:52 | 57.15884 | 65.38137 | 789 ft | 138 kts | 314° |
| 2026-04-30 14:53 | 57.17223 | 65.35642 | 422 ft | 137 kts | 314° |
| 2026-04-30 14:53 | 57.17879 | 65.34418 | 344 ft | 122 kts | 314° |
| 2026-04-30 14:54 | 57.18460 | 65.33339 | 338 ft | 21 kts | 315° |
| 2026-04-30 14:54 | 57.18585 | 65.33300 | 335 ft | 7 kts | 46° |
| 2026-04-30 14:55 | 57.18619 | 65.33442 | 339 ft | 6 kts | 89° |
| 2026-04-30 14:55 | 57.18619 | 65.33515 | 339 ft | 6 kts | 90° |
| 2026-04-30 14:55 | 57.18591 | 65.33648 | 338 ft | 7 kts | 134° |
| 2026-04-30 14:56 | 57.18499 | 65.33820 | 339 ft | 12 kts | 135° |
| 2026-04-30 14:56 | 57.18355 | 65.34086 | 336 ft | 17 kts | 134° |
| 2026-04-30 14:57 | 57.18267 | 65.34250 | 339 ft | 19 kts | 135° |
| 2026-04-30 14:57 | 57.18095 | 65.34569 | 337 ft | 16 kts | 135° |
| 2026-04-30 14:58 | 57.17985 | 65.34773 | 335 ft | 5 kts | 134° |
| 2026-04-30 14:58 | 57.17980 | 65.34823 | 340 ft | 4 kts | 75° |
| 2026-04-30 14:58 | 57.18011 | 65.34896 | 340 ft | 3 kts | 45° |
| 2026-04-30 14:59 | 57.18017 | 65.34906 | 340 ft | 0 kts | 45° |